createdAt,value
2019-05-25T00:00:09.417Z,14.20
2019-05-25T00:02:36.293Z,14.19
2019-05-25T00:05:05.247Z,14.16
2019-05-25T00:07:32.129Z,14.16
2019-05-25T00:09:59.013Z,14.13
2019-05-25T00:12:25.840Z,14.12
2019-05-25T00:14:52.612Z,14.14
2019-05-25T00:17:19.502Z,14.09
2019-05-25T00:19:46.247Z,14.05
2019-05-25T00:22:12.988Z,14.02
2019-05-25T00:24:39.879Z,14.01
2019-05-25T00:27:06.611Z,13.98
2019-05-25T00:29:33.353Z,13.97
2019-05-25T00:32:00.230Z,13.93
2019-05-25T00:34:26.962Z,13.91
2019-05-25T00:36:53.699Z,13.88
2019-05-25T00:39:20.537Z,13.81
2019-05-25T00:41:47.288Z,13.74
2019-05-25T00:44:14.025Z,13.72
2019-05-25T00:46:40.857Z,13.71
2019-05-25T00:49:07.596Z,13.70
2019-05-25T00:51:34.327Z,13.70
2019-05-25T00:54:01.232Z,13.68
2019-05-25T00:56:27.965Z,13.63
2019-05-25T00:58:54.706Z,13.57
2019-05-25T01:01:24.358Z,13.51
2019-05-25T01:03:50.163Z,13.48
2019-05-25T01:06:16.901Z,13.44
2019-05-25T01:08:43.822Z,13.43
2019-05-25T01:11:10.548Z,13.41
2019-05-25T01:13:37.298Z,13.37
2019-05-25T01:16:04.556Z,13.31
2019-05-25T01:18:31.294Z,13.34
2019-05-25T01:20:58.004Z,13.35
2019-05-25T01:23:24.907Z,13.35
2019-05-25T01:25:51.637Z,13.35
2019-05-25T01:28:19.454Z,13.32
2019-05-25T01:30:46.373Z,13.29
2019-05-25T01:33:13.135Z,13.25
2019-05-25T01:35:39.833Z,13.20
2019-05-25T01:38:06.648Z,13.14
2019-05-25T01:40:33.385Z,13.10
2019-05-25T01:43:00.117Z,13.04
2019-05-25T01:45:27.011Z,13.03
2019-05-25T01:47:53.759Z,12.99
2019-05-25T01:50:20.502Z,13.00
2019-05-25T01:52:47.390Z,13.00
2019-05-25T01:55:14.119Z,13.00
2019-05-25T01:57:40.836Z,12.98
2019-05-25T02:00:08.524Z,12.89
2019-05-25T02:02:35.236Z,12.86
2019-05-25T02:05:03.296Z,12.78
2019-05-25T02:07:30.129Z,12.77
2019-05-25T02:09:56.999Z,12.75
2019-05-25T02:12:23.728Z,12.73
2019-05-25T02:14:50.532Z,12.68
2019-05-25T02:17:17.300Z,12.66
2019-05-25T02:19:44.037Z,12.60
2019-05-25T02:22:10.909Z,12.55
2019-05-25T02:24:37.665Z,12.58
2019-05-25T02:27:04.417Z,12.59
2019-05-25T02:29:31.204Z,12.59
2019-05-25T02:31:57.958Z,12.58
2019-05-25T02:34:24.691Z,12.54
2019-05-25T02:36:51.753Z,12.53
2019-05-25T02:39:19.569Z,12.55
2019-05-25T02:41:46.309Z,12.54
2019-05-25T02:44:13.178Z,12.58
2019-05-25T02:46:39.905Z,12.59
2019-05-25T02:49:06.639Z,12.61
2019-05-25T02:51:33.422Z,12.57
2019-05-25T02:54:00.157Z,12.51
2019-05-25T02:56:26.879Z,12.50
2019-05-25T02:58:53.694Z,12.46
2019-05-25T03:01:20.517Z,12.43
2019-05-25T03:03:47.431Z,12.41
2019-05-25T03:06:14.475Z,12.38
2019-05-25T03:08:43.891Z,12.35
2019-05-25T03:11:10.787Z,12.35
2019-05-25T03:13:38.613Z,12.33
2019-05-25T03:16:05.479Z,12.33
2019-05-25T03:18:32.212Z,12.28
2019-05-25T03:20:59.114Z,12.23
2019-05-25T03:23:25.831Z,12.26
2019-05-25T03:25:52.576Z,12.24
2019-05-25T03:28:19.916Z,12.23
2019-05-25T03:30:48.199Z,12.26
2019-05-25T03:33:14.938Z,12.26
2019-05-25T03:35:41.830Z,12.32
2019-05-25T03:38:08.551Z,12.33
2019-05-25T03:40:35.293Z,12.32
2019-05-25T03:43:02.498Z,12.33
2019-05-25T03:45:29.237Z,12.36
2019-05-25T03:47:55.957Z,12.42
2019-05-25T03:50:22.755Z,12.41
2019-05-25T03:52:49.505Z,12.39
2019-05-25T03:55:17.411Z,12.41
2019-05-25T03:57:44.335Z,12.41
2019-05-25T04:00:11.966Z,12.44
2019-05-25T04:02:38.718Z,12.44
2019-05-25T04:05:06.575Z,12.43
2019-05-25T04:07:33.324Z,12.42
2019-05-25T04:10:00.157Z,12.43
2019-05-25T04:12:27.374Z,12.45
2019-05-25T04:14:54.099Z,12.45
2019-05-25T04:17:20.831Z,12.45
2019-05-25T04:19:47.740Z,12.43
2019-05-25T04:22:14.454Z,12.47
2019-05-25T04:24:41.181Z,12.49
2019-05-25T04:27:08.079Z,12.47
2019-05-25T04:29:34.816Z,12.45
2019-05-25T04:32:01.540Z,12.47
2019-05-25T04:34:28.415Z,12.49
2019-05-25T04:36:55.156Z,12.46
2019-05-25T04:39:21.888Z,12.49
2019-05-25T04:41:48.760Z,12.51
2019-05-25T04:44:15.503Z,12.57
2019-05-25T04:46:42.251Z,12.61
2019-05-25T04:49:09.115Z,12.67
2019-05-25T04:51:35.861Z,12.68
2019-05-25T04:54:02.597Z,12.68
2019-05-25T04:56:38.991Z,12.71
2019-05-25T04:58:57.917Z,12.76
2019-05-25T05:01:24.665Z,12.78
2019-05-25T05:03:51.551Z,12.83
2019-05-25T05:06:18.265Z,12.84
2019-05-25T05:08:45.026Z,12.84
2019-05-25T05:11:11.919Z,12.84
2019-05-25T05:13:38.681Z,12.82
2019-05-25T05:16:05.433Z,12.86
2019-05-25T05:18:32.322Z,12.88
2019-05-25T05:20:59.061Z,12.89
2019-05-25T05:23:25.775Z,12.90
2019-05-25T05:25:52.681Z,12.93
2019-05-25T05:28:19.389Z,12.93
2019-05-25T05:30:46.152Z,12.93
2019-05-25T05:33:13.127Z,12.98
2019-05-25T05:35:41.191Z,13.00
2019-05-25T05:38:07.919Z,12.99
2019-05-25T05:40:35.613Z,13.02
2019-05-25T05:43:08.446Z,13.10
2019-05-25T05:45:39.945Z,13.17
2019-05-25T05:48:10.406Z,13.22
2019-05-25T05:50:38.138Z,13.30
2019-05-25T05:53:05.140Z,13.42
2019-05-25T05:55:33.149Z,13.52
2019-05-25T05:58:00.960Z,13.60
2019-05-25T06:00:27.979Z,13.68
2019-05-25T06:02:54.721Z,13.77
2019-05-25T06:05:21.476Z,13.85
2019-05-25T06:07:48.265Z,13.91
2019-05-25T06:10:15.024Z,13.99
2019-05-25T06:12:41.736Z,14.07
2019-05-25T06:15:08.975Z,14.13
2019-05-25T06:17:35.737Z,14.23
2019-05-25T06:20:08.720Z,14.31
2019-05-25T06:22:35.613Z,14.37
2019-05-25T06:25:04.753Z,14.44
2019-05-25T06:27:31.504Z,14.53
2019-05-25T06:29:58.302Z,14.56
2019-05-25T06:32:25.026Z,14.65
2019-05-25T06:34:51.785Z,14.75
2019-05-25T06:37:18.562Z,14.82
2019-05-25T06:39:45.330Z,14.86
2019-05-25T06:42:12.008Z,14.89
2019-05-25T06:44:38.891Z,14.90
2019-05-25T06:47:05.602Z,14.98
2019-05-25T06:49:32.356Z,15.00
2019-05-25T06:51:59.271Z,15.06
2019-05-25T06:54:25.986Z,15.03
2019-05-25T06:56:52.741Z,15.06
2019-05-25T06:59:19.595Z,15.07
2019-05-25T07:01:46.349Z,15.06
2019-05-25T07:04:13.064Z,15.07
2019-05-25T07:06:39.933Z,15.08
2019-05-25T07:09:06.779Z,15.04
2019-05-25T07:11:34.839Z,15.06
2019-05-25T07:14:01.750Z,15.07
2019-05-25T07:16:28.527Z,15.09
2019-05-25T07:18:55.273Z,15.11
2019-05-25T07:21:22.165Z,15.11
2019-05-25T07:23:48.890Z,15.10
2019-05-25T07:26:15.645Z,15.11
2019-05-25T07:28:42.424Z,15.14
2019-05-25T07:31:09.274Z,15.16
2019-05-25T07:33:35.988Z,15.22
2019-05-25T07:36:07.315Z,15.22
2019-05-25T07:38:31.612Z,15.23
2019-05-25T07:40:58.349Z,15.24
2019-05-25T07:43:25.215Z,15.26
2019-05-25T07:45:51.956Z,15.26
2019-05-25T07:48:18.720Z,15.28
2019-05-25T07:50:45.607Z,15.28
2019-05-25T07:53:12.330Z,15.28
2019-05-25T07:55:39.042Z,15.29
2019-05-25T07:58:16.631Z,15.29
2019-05-25T08:00:34.480Z,15.28
2019-05-25T08:03:01.218Z,15.28
2019-05-25T08:05:28.122Z,15.29
2019-05-25T08:07:54.884Z,15.27
2019-05-25T08:10:21.706Z,15.28
2019-05-25T08:12:48.545Z,15.24
2019-05-25T08:15:15.457Z,15.20
2019-05-25T08:17:42.318Z,15.16
2019-05-25T08:20:09.902Z,15.14
2019-05-25T08:22:36.632Z,15.11
2019-05-25T08:25:06.587Z,15.10
2019-05-25T08:27:33.470Z,14.97
2019-05-25T08:30:00.212Z,14.86
2019-05-25T08:32:26.937Z,14.83
2019-05-25T08:34:53.761Z,14.80
2019-05-25T08:37:20.516Z,14.76
2019-05-25T08:39:47.232Z,14.70
2019-05-25T08:42:14.049Z,14.61
2019-05-25T08:44:40.788Z,14.53
2019-05-25T08:47:07.527Z,14.55
2019-05-25T08:49:34.349Z,14.54
2019-05-25T08:52:04.053Z,14.53
2019-05-25T08:54:29.619Z,14.57
2019-05-25T08:56:56.518Z,14.60
2019-05-25T08:59:23.228Z,14.65
2019-05-25T09:01:50.103Z,14.63
2019-05-25T09:04:17.079Z,14.56
2019-05-25T09:06:43.805Z,14.43
2019-05-25T09:09:10.566Z,14.39
2019-05-25T09:11:37.427Z,14.43
2019-05-25T09:14:04.170Z,14.44
2019-05-25T09:16:30.970Z,14.45
2019-05-25T09:18:57.890Z,14.55
2019-05-25T09:21:24.616Z,14.57
2019-05-25T09:23:51.391Z,14.65
2019-05-25T09:26:18.287Z,14.67
2019-05-25T09:28:45.025Z,14.66
2019-05-25T09:31:11.776Z,14.71
2019-05-25T09:33:38.671Z,14.65
2019-05-25T09:36:05.393Z,14.62
2019-05-25T09:38:32.150Z,14.56
2019-05-25T09:40:59.059Z,14.57
2019-05-25T09:43:25.796Z,14.43
2019-05-25T09:45:52.535Z,14.41
2019-05-25T09:48:19.311Z,14.38
2019-05-25T09:50:46.051Z,14.43
2019-05-25T09:53:12.805Z,14.51
2019-05-25T09:55:39.599Z,14.54
2019-05-25T09:58:06.315Z,14.56
2019-05-25T10:00:33.068Z,14.56
2019-05-25T10:02:59.958Z,14.60
2019-05-25T10:05:26.682Z,14.66
2019-05-25T10:07:53.413Z,14.69
2019-05-25T10:10:20.605Z,14.73
2019-05-25T10:12:47.349Z,14.79
2019-05-25T10:15:14.382Z,14.82
2019-05-25T10:17:41.377Z,14.85
2019-05-25T10:20:08.559Z,14.87
2019-05-25T10:22:35.281Z,14.84
2019-05-25T10:25:04.877Z,14.83
2019-05-25T10:27:34.196Z,14.83
2019-05-25T10:30:00.166Z,14.86
2019-05-25T10:32:27.051Z,14.93
2019-05-25T10:34:53.771Z,15.02
2019-05-25T10:37:20.545Z,15.09
2019-05-25T10:39:47.433Z,15.16
2019-05-25T10:42:14.195Z,15.18
2019-05-25T10:44:43.562Z,15.23
2019-05-25T10:47:10.420Z,15.27
2019-05-25T10:49:37.130Z,15.26
2019-05-25T10:52:03.877Z,15.27
2019-05-25T10:54:30.756Z,15.30
2019-05-25T10:56:57.478Z,15.35
2019-05-25T10:59:24.214Z,15.41
2019-05-25T11:01:51.109Z,15.45
2019-05-25T11:04:17.847Z,15.50
2019-05-25T11:06:44.597Z,15.54
2019-05-25T11:09:11.464Z,15.56
2019-05-25T11:11:38.204Z,15.59
2019-05-25T11:14:04.957Z,15.63
2019-05-25T11:16:31.866Z,15.66
2019-05-25T11:18:58.629Z,15.68
2019-05-25T11:21:25.374Z,15.70
2019-05-25T11:23:52.299Z,15.72
2019-05-25T11:26:19.046Z,15.78
2019-05-25T11:28:45.764Z,15.83
2019-05-25T11:31:12.669Z,15.88
2019-05-25T11:33:39.700Z,15.91
2019-05-25T11:36:06.426Z,15.95
2019-05-25T11:38:33.236Z,15.95
2019-05-25T11:40:59.983Z,15.95
2019-05-25T11:43:26.836Z,15.92
2019-05-25T11:45:53.646Z,15.96
2019-05-25T11:48:20.386Z,15.99
2019-05-25T11:50:47.112Z,16.02
2019-05-25T11:53:13.986Z,16.03
2019-05-25T11:55:40.740Z,16.01
2019-05-25T11:58:07.476Z,16.01
2019-05-25T12:00:34.480Z,16.03
2019-05-25T12:03:01.202Z,16.03
2019-05-25T12:05:27.961Z,16.02
2019-05-25T12:07:54.832Z,16.05
2019-05-25T12:10:21.663Z,16.08
2019-05-25T12:12:48.494Z,16.09
2019-05-25T12:15:16.661Z,16.07
2019-05-25T12:17:43.393Z,15.99
2019-05-25T12:20:12.247Z,16.04
2019-05-25T12:22:39.059Z,16.09
2019-05-25T12:25:06.718Z,16.10
2019-05-25T12:27:33.444Z,16.14
2019-05-25T12:30:00.675Z,16.17
2019-05-25T12:32:27.555Z,16.16
2019-05-25T12:34:54.286Z,16.18
2019-05-25T12:37:21.362Z,16.23
2019-05-25T12:39:48.470Z,16.30
2019-05-25T12:42:15.277Z,16.29
2019-05-25T12:44:42.249Z,16.34
2019-05-25T12:47:08.970Z,16.26
2019-05-25T12:49:50.189Z,16.06
2019-05-25T12:52:04.381Z,15.73
2019-05-25T12:54:31.133Z,15.64
2019-05-25T12:56:57.869Z,15.47
2019-05-25T12:59:24.771Z,15.37
2019-05-25T13:01:53.913Z,15.45
2019-05-25T13:04:20.608Z,15.59
2019-05-25T13:06:47.509Z,15.59
2019-05-25T13:09:14.246Z,15.56
2019-05-25T13:11:40.991Z,15.52
2019-05-25T13:14:14.650Z,15.47
2019-05-25T13:16:36.709Z,15.53
2019-05-25T13:19:03.546Z,15.65
2019-05-25T13:21:31.162Z,15.97
2019-05-25T13:23:57.904Z,16.34
2019-05-25T13:26:24.649Z,16.70
2019-05-25T13:28:51.452Z,17.05
2019-05-25T13:31:18.190Z,17.38
2019-05-25T13:33:44.943Z,17.66
2019-05-25T13:36:11.759Z,17.92
2019-05-25T13:38:38.479Z,18.15
2019-05-25T13:41:05.529Z,18.17
2019-05-25T13:43:32.357Z,18.43
2019-05-25T13:45:59.088Z,18.81
2019-05-25T13:48:26.049Z,19.12
2019-05-25T13:50:52.853Z,19.41
2019-05-25T13:53:19.632Z,19.68
2019-05-25T13:55:46.371Z,20.01
2019-05-25T13:58:13.157Z,20.23
2019-05-25T14:00:39.905Z,20.55
2019-05-25T14:03:06.667Z,20.76
2019-05-25T14:05:33.595Z,20.63
2019-05-25T14:08:00.325Z,20.43
2019-05-25T14:10:27.058Z,20.24
2019-05-25T14:12:53.956Z,20.28
2019-05-25T14:15:20.679Z,20.30
2019-05-25T14:17:47.394Z,20.24
2019-05-25T14:20:14.905Z,20.34
2019-05-25T14:22:41.678Z,20.25
2019-05-25T14:25:09.415Z,20.66
2019-05-25T14:27:36.313Z,21.03
2019-05-25T14:30:05.790Z,21.18
2019-05-25T14:32:32.503Z,21.17
2019-05-25T14:34:59.390Z,21.17
2019-05-25T14:37:26.099Z,21.24
2019-05-25T14:39:52.845Z,21.35
2019-05-25T14:42:19.729Z,21.47
2019-05-25T14:44:46.441Z,21.81
2019-05-25T14:47:13.163Z,21.95
2019-05-25T14:49:40.054Z,21.93
2019-05-25T14:52:07.154Z,22.04
2019-05-25T14:54:33.875Z,21.94
2019-05-25T14:57:02.030Z,21.80
2019-05-25T14:59:28.759Z,21.66
2019-05-25T15:02:02.547Z,21.52
2019-05-25T15:04:24.306Z,21.32
2019-05-25T15:06:51.012Z,21.34
2019-05-25T15:09:17.754Z,21.50
2019-05-25T15:11:44.623Z,21.57
2019-05-25T15:14:11.340Z,21.49
2019-05-25T15:16:38.083Z,21.52
2019-05-25T15:19:04.942Z,21.33
2019-05-25T15:21:31.955Z,21.48
2019-05-25T15:23:58.899Z,21.67
2019-05-25T15:26:25.711Z,21.91
2019-05-25T15:28:52.438Z,22.26
2019-05-25T15:31:19.165Z,22.53
2019-05-25T15:33:46.031Z,22.48
2019-05-25T15:36:12.733Z,22.25
2019-05-25T15:38:39.481Z,21.86
2019-05-25T15:41:06.368Z,21.58
2019-05-25T15:43:33.078Z,21.35
2019-05-25T15:45:59.846Z,21.21
2019-05-25T15:48:26.900Z,21.06
2019-05-25T15:50:53.588Z,20.89
2019-05-25T15:53:20.318Z,20.79
2019-05-25T15:55:47.103Z,20.71
2019-05-25T15:58:13.843Z,20.80
2019-05-25T16:00:49.737Z,20.93
2019-05-25T16:03:18.460Z,21.10
2019-05-25T16:05:47.565Z,21.28
2019-05-25T16:08:16.218Z,21.52
2019-05-25T16:10:42.924Z,21.60
2019-05-25T16:13:10.266Z,21.55
2019-05-25T16:15:37.170Z,21.49
2019-05-25T16:18:03.986Z,21.53
2019-05-25T16:20:30.711Z,21.57
2019-05-25T16:22:57.528Z,21.51
2019-05-25T16:25:24.544Z,21.46
2019-05-25T16:27:51.290Z,21.32
2019-05-25T16:30:18.306Z,21.23
2019-05-25T16:33:11.051Z,21.05
2019-05-25T16:35:13.687Z,20.86
2019-05-25T16:37:40.754Z,20.73
2019-05-25T16:40:08.709Z,20.60
2019-05-25T16:42:35.438Z,20.51
2019-05-25T16:45:07.264Z,20.46
2019-05-25T16:47:34.520Z,20.38
2019-05-25T16:50:01.281Z,20.33
2019-05-25T16:52:28.267Z,20.28
2019-05-25T16:54:55.008Z,20.20
2019-05-25T16:57:22.023Z,20.15
2019-05-25T16:59:48.922Z,20.06
2019-05-25T17:02:15.773Z,19.91
2019-05-25T17:04:42.481Z,19.77
2019-05-25T17:07:09.390Z,19.58
2019-05-25T17:09:36.489Z,19.42
2019-05-25T17:12:03.591Z,19.28
2019-05-25T17:14:30.490Z,19.07
2019-05-25T17:16:58.120Z,18.89
2019-05-25T17:19:25.083Z,18.73
2019-05-25T17:21:52.041Z,18.64
2019-05-25T17:24:18.791Z,18.56
2019-05-25T17:26:45.575Z,18.51
2019-05-25T17:29:13.249Z,18.40
2019-05-25T17:31:40.345Z,18.27
2019-05-25T17:34:07.631Z,18.16
2019-05-25T17:36:34.436Z,18.06
2019-05-25T17:39:01.181Z,17.93
2019-05-25T17:41:27.920Z,17.80
2019-05-25T17:43:54.830Z,17.71
2019-05-25T17:46:21.516Z,17.64
2019-05-25T17:48:48.272Z,17.57
2019-05-25T17:51:15.082Z,17.52
2019-05-25T17:53:41.833Z,17.41
2019-05-25T17:56:08.710Z,17.30
2019-05-25T17:58:37.162Z,17.27
2019-05-25T18:01:03.954Z,17.23
2019-05-25T18:03:30.686Z,17.18
2019-05-25T18:05:57.558Z,17.11
2019-05-25T18:08:24.303Z,17.02
2019-05-25T18:10:54.225Z,17.02
2019-05-25T18:13:19.882Z,16.95
2019-05-25T18:15:48.933Z,16.85
2019-05-25T18:18:15.464Z,16.81
2019-05-25T18:20:42.342Z,16.76
2019-05-25T18:23:09.087Z,16.75
2019-05-25T18:25:35.859Z,16.69
2019-05-25T18:28:03.704Z,16.65
2019-05-25T18:30:30.583Z,16.60
2019-05-25T18:32:57.288Z,16.52
2019-05-25T18:35:24.199Z,16.47
2019-05-25T18:37:50.906Z,16.41
2019-05-25T18:40:18.645Z,16.40
2019-05-25T18:42:45.992Z,16.36
2019-05-25T18:45:13.511Z,16.35
2019-05-25T18:47:40.259Z,16.29
2019-05-25T18:50:08.914Z,16.20
2019-05-25T18:52:35.660Z,16.11
2019-05-25T18:55:07.861Z,16.02
2019-05-25T18:57:34.753Z,15.96
2019-05-25T19:00:01.513Z,15.89
2019-05-25T19:02:28.220Z,15.90
2019-05-25T19:04:59.757Z,15.90
2019-05-25T19:07:23.690Z,15.85
2019-05-25T19:09:50.423Z,15.78
2019-05-25T19:12:17.432Z,15.71
2019-05-25T19:14:44.182Z,15.66
2019-05-25T19:17:10.896Z,15.65
2019-05-25T19:19:37.659Z,15.66
2019-05-25T19:22:04.869Z,15.64
2019-05-25T19:24:32.528Z,15.62
2019-05-25T19:26:59.329Z,15.63
2019-05-25T19:29:26.149Z,15.64
2019-05-25T19:31:53.003Z,15.63
2019-05-25T19:34:19.807Z,15.65
2019-05-25T19:36:46.728Z,15.65
2019-05-25T19:39:13.469Z,15.62
2019-05-25T19:41:40.366Z,15.61
2019-05-25T19:44:07.098Z,15.59
2019-05-25T19:46:33.809Z,15.59
2019-05-25T19:49:00.708Z,15.55
2019-05-25T19:51:27.408Z,15.55
2019-05-25T19:53:54.133Z,15.51
2019-05-25T19:56:20.931Z,15.50
2019-05-25T19:58:47.715Z,15.52
2019-05-25T20:01:14.566Z,15.51
2019-05-25T20:03:41.468Z,15.49
2019-05-25T20:06:08.203Z,15.52
2019-05-25T20:08:34.909Z,15.50
2019-05-25T20:11:01.696Z,15.46
2019-05-25T20:13:28.421Z,15.43
2019-05-25T20:15:55.159Z,15.41
2019-05-25T20:18:22.050Z,15.26
2019-05-25T20:20:48.813Z,15.12
2019-05-25T20:23:15.558Z,15.04
2019-05-25T20:25:42.359Z,14.95
2019-05-25T20:28:09.097Z,14.92
2019-05-25T20:30:35.876Z,14.83
2019-05-25T20:33:02.787Z,14.73
2019-05-25T20:35:33.388Z,14.68
2019-05-25T20:37:58.075Z,14.67
2019-05-25T20:40:24.983Z,14.63
2019-05-25T20:42:51.813Z,14.64
2019-05-25T20:45:18.542Z,14.60
2019-05-25T20:47:45.332Z,14.54
2019-05-25T20:50:12.593Z,14.48
2019-05-25T20:52:39.330Z,14.44
2019-05-25T20:55:06.948Z,14.43
2019-05-25T20:57:33.679Z,14.36
2019-05-25T21:00:00.427Z,14.33
2019-05-25T21:02:27.299Z,14.29
2019-05-25T21:04:54.026Z,14.23
2019-05-25T21:07:20.789Z,14.19
2019-05-25T21:09:47.569Z,14.14
2019-05-25T21:12:14.305Z,14.11
2019-05-25T21:14:41.057Z,14.05
2019-05-25T21:17:07.925Z,14.05
2019-05-25T21:19:34.665Z,13.99
2019-05-25T21:22:01.438Z,14.02
2019-05-25T21:24:28.333Z,14.03
2019-05-25T21:26:55.088Z,13.99
2019-05-25T21:29:21.828Z,13.97
2019-05-25T21:31:48.806Z,13.90
2019-05-25T21:34:15.569Z,13.95
2019-05-25T21:36:43.260Z,13.93
2019-05-25T21:39:10.328Z,13.90
2019-05-25T21:41:37.076Z,13.86
2019-05-25T21:44:03.806Z,13.81
2019-05-25T21:46:30.665Z,13.82
2019-05-25T21:48:57.394Z,13.84
2019-05-25T21:51:24.097Z,13.81
2019-05-25T21:53:51.004Z,13.78
2019-05-25T21:56:17.765Z,13.77
2019-05-25T21:58:44.515Z,13.76
2019-05-25T22:01:11.988Z,13.72
2019-05-25T22:03:38.772Z,13.68
2019-05-25T22:06:05.517Z,13.68
2019-05-25T22:08:32.367Z,13.66
2019-05-25T22:10:59.123Z,13.68
2019-05-25T22:13:28.916Z,13.67
2019-05-25T22:15:54.531Z,13.69
2019-05-25T22:18:21.259Z,13.67
2019-05-25T22:20:48.011Z,13.66
2019-05-25T22:23:14.902Z,13.64
2019-05-25T22:25:42.445Z,13.62
2019-05-25T22:28:09.165Z,13.57
2019-05-25T22:30:36.069Z,13.50
2019-05-25T22:33:02.970Z,13.55
2019-05-25T22:35:29.696Z,13.55
2019-05-25T22:37:56.594Z,13.55
2019-05-25T22:40:23.315Z,13.50
2019-05-25T22:42:50.054Z,13.47
2019-05-25T22:45:17.019Z,13.48
2019-05-25T22:47:43.758Z,13.46
2019-05-25T22:50:10.785Z,13.44
2019-05-25T22:52:37.635Z,13.42
2019-05-25T22:55:06.793Z,13.37
2019-05-25T22:57:33.523Z,13.36
2019-05-25T23:00:00.296Z,13.35
2019-05-25T23:02:27.024Z,13.35
2019-05-25T23:04:53.740Z,13.33
2019-05-25T23:07:20.636Z,13.30
2019-05-25T23:09:47.374Z,13.30
2019-05-25T23:12:14.101Z,13.30
2019-05-25T23:14:41.008Z,13.31
2019-05-25T23:17:07.744Z,13.29
2019-05-25T23:19:34.476Z,13.28
2019-05-25T23:22:01.253Z,13.24
2019-05-25T23:24:27.998Z,13.22
2019-05-25T23:26:54.722Z,13.29
2019-05-25T23:29:21.619Z,13.28
2019-05-25T23:31:48.372Z,13.26
2019-05-25T23:34:15.159Z,13.25
2019-05-25T23:36:41.968Z,13.28
2019-05-25T23:39:08.708Z,13.31
2019-05-25T23:41:35.446Z,13.30
2019-05-25T23:44:02.413Z,13.28
2019-05-25T23:46:29.143Z,13.26
2019-05-25T23:48:55.886Z,13.23
2019-05-25T23:51:22.761Z,13.18
2019-05-25T23:53:49.513Z,13.19
2019-05-25T23:56:16.252Z,13.17
2019-05-25T23:58:43.064Z,13.15
